sensor_id;sensor_type;location;lat;lon;timestamp;P1;durP1;ratioP1;P2;durP2;ratioP2
64467;SDS011;50853;46.836;16.820;2023-01-16T06:33:47;4.82;;;1.40;;
64467;SDS011;50853;46.836;16.820;2023-01-16T06:36:13;2.92;;;1.40;;
64467;SDS011;50853;46.836;16.820;2023-01-16T06:38:39;4.35;;;1.60;;
64467;SDS011;50853;46.836;16.820;2023-01-16T06:41:04;1.70;;;1.30;;
64467;SDS011;50853;46.836;16.820;2023-01-16T06:43:30;2.85;;;1.30;;
64467;SDS011;50853;46.836;16.820;2023-01-16T06:45:56;6.18;;;1.48;;
64467;SDS011;50853;46.836;16.820;2023-01-16T06:48:22;2.67;;;1.38;;
64467;SDS011;50853;46.836;16.820;2023-01-16T06:50:48;2.40;;;1.23;;
64467;SDS011;50853;46.836;16.820;2023-01-16T06:53:14;2.88;;;1.30;;
64467;SDS011;50853;46.836;16.820;2023-01-16T06:55:40;3.58;;;1.38;;
64467;SDS011;50853;46.836;16.820;2023-01-16T06:58:06;3.80;;;1.45;;
64467;SDS011;50853;46.836;16.820;2023-01-16T07:00:33;4.60;;;1.40;;
64467;SDS011;50853;46.836;16.820;2023-01-16T07:02:59;6.53;;;1.50;;
64467;SDS011;50853;46.836;16.820;2023-01-16T07:05:26;2.33;;;1.30;;
64467;SDS011;50853;46.836;16.820;2023-01-16T07:10:19;3.50;;;1.30;;
64467;SDS011;50853;46.836;16.820;2023-01-16T07:12:49;3.50;;;1.27;;
64467;SDS011;50853;46.836;16.820;2023-01-16T07:15:17;14.35;;;2.80;;
64467;SDS011;50853;46.836;16.820;2023-01-16T07:18:01;6.57;;;1.95;;
64467;SDS011;50853;46.836;16.820;2023-01-16T07:20:47;3.67;;;1.42;;
64467;SDS011;50853;46.836;16.820;2023-01-16T07:23:59;3.75;;;1.42;;
64467;SDS011;50853;46.836;16.820;2023-01-16T07:26:27;4.13;;;1.13;;
64467;SDS011;50853;46.836;16.820;2023-01-16T07:28:54;3.30;;;1.10;;
64467;SDS011;50853;46.836;16.820;2023-01-16T07:31:21;2.50;;;1.20;;
64467;SDS011;50853;46.836;16.820;2023-01-16T07:33:48;9.27;;;1.52;;
64467;SDS011;50853;46.836;16.820;2023-01-16T07:36:13;3.92;;;1.10;;
64467;SDS011;50853;46.836;16.820;2023-01-16T07:38:39;2.13;;;1.30;;
64467;SDS011;50853;46.836;16.820;2023-01-16T07:41:05;4.57;;;1.30;;
64467;SDS011;50853;46.836;16.820;2023-01-16T07:43:31;2.10;;;1.23;;
64467;SDS011;50853;46.836;16.820;2023-01-16T07:45:57;4.03;;;1.52;;
64467;SDS011;50853;46.836;16.820;2023-01-16T07:48:22;7.60;;;1.42;;
64467;SDS011;50853;46.836;16.820;2023-01-16T07:50:53;3.58;;;1.33;;
64467;SDS011;50853;46.836;16.820;2023-01-16T07:53:20;2.53;;;1.10;;
64467;SDS011;50853;46.836;16.820;2023-01-16T07:55:48;6.55;;;1.30;;
64467;SDS011;50853;46.836;16.820;2023-01-16T07:58:15;1.98;;;1.00;;
64467;SDS011;50853;46.836;16.820;2023-01-16T08:00:42;4.82;;;1.25;;
64467;SDS011;50853;46.836;16.820;2023-01-16T08:03:08;5.10;;;1.65;;
64467;SDS011;50853;46.836;16.820;2023-01-16T08:05:34;5.88;;;1.50;;
64467;SDS011;50853;46.836;16.820;2023-01-16T08:07:59;14.18;;;1.20;;
64467;SDS011;50853;46.836;16.820;2023-01-16T08:10:25;5.05;;;1.48;;
64467;SDS011;50853;46.836;16.820;2023-01-16T08:12:51;6.32;;;1.45;;
64467;SDS011;50853;46.836;16.820;2023-01-16T08:15:16;3.33;;;1.30;;
64467;SDS011;50853;46.836;16.820;2023-01-16T08:17:42;5.28;;;1.50;;
64467;SDS011;50853;46.836;16.820;2023-01-16T08:20:08;9.70;;;1.80;;
64467;SDS011;50853;46.836;16.820;2023-01-16T08:22:35;10.53;;;1.60;;
64467;SDS011;50853;46.836;16.820;2023-01-16T08:25:06;7.00;;;2.05;;
64467;SDS011;50853;46.836;16.820;2023-01-16T08:27:32;7.68;;;1.58;;
64467;SDS011;50853;46.836;16.820;2023-01-16T08:29:59;7.68;;;1.55;;
64467;SDS011;50853;46.836;16.820;2023-01-16T08:32:25;5.93;;;1.38;;
64467;SDS011;50853;46.836;16.820;2023-01-16T08:34:50;2.85;;;1.15;;
64467;SDS011;50853;46.836;16.820;2023-01-16T08:37:16;6.25;;;1.63;;
64467;SDS011;50853;46.836;16.820;2023-01-16T08:39:45;7.68;;;1.25;;
64467;SDS011;50853;46.836;16.820;2023-01-16T08:42:10;4.50;;;1.42;;
64467;SDS011;50853;46.836;16.820;2023-01-16T08:44:55;7.57;;;1.40;;
64467;SDS011;50853;46.836;16.820;2023-01-16T08:47:39;9.40;;;1.27;;
64467;SDS011;50853;46.836;16.820;2023-01-16T08:50:23;5.43;;;1.73;;
64467;SDS011;50853;46.836;16.820;2023-01-16T08:53:08;9.35;;;1.63;;
64467;SDS011;50853;46.836;16.820;2023-01-16T08:55:33;8.68;;;1.20;;
64467;SDS011;50853;46.836;16.820;2023-01-16T08:57:59;5.80;;;1.40;;
64467;SDS011;50853;46.836;16.820;2023-01-16T09:00:26;7.30;;;2.03;;
64467;SDS011;50853;46.836;16.820;2023-01-16T09:02:52;8.13;;;1.33;;
64467;SDS011;50853;46.836;16.820;2023-01-16T09:05:20;12.55;;;1.77;;
64467;SDS011;50853;46.836;16.820;2023-01-16T09:07:45;9.70;;;1.27;;
64467;SDS011;50853;46.836;16.820;2023-01-16T09:10:11;17.95;;;2.22;;
64467;SDS011;50853;46.836;16.820;2023-01-16T09:12:38;8.30;;;2.10;;
64467;SDS011;50853;46.836;16.820;2023-01-16T09:15:23;8.60;;;1.60;;
64467;SDS011;50853;46.836;16.820;2023-01-16T09:17:49;15.73;;;2.23;;
64467;SDS011;50853;46.836;16.820;2023-01-16T09:20:15;8.55;;;1.45;;
64467;SDS011;50853;46.836;16.820;2023-01-16T09:22:41;8.05;;;1.83;;
64467;SDS011;50853;46.836;16.820;2023-01-16T09:25:07;12.23;;;1.83;;
64467;SDS011;50853;46.836;16.820;2023-01-16T09:27:33;14.05;;;2.17;;
64467;SDS011;50853;46.836;16.820;2023-01-16T09:29:59;6.55;;;1.70;;
64467;SDS011;50853;46.836;16.820;2023-01-16T09:32:25;7.25;;;1.52;;
64467;SDS011;50853;46.836;16.820;2023-01-16T09:34:51;12.02;;;1.77;;
64467;SDS011;50853;46.836;16.820;2023-01-16T09:37:17;9.38;;;1.80;;
64467;SDS011;50853;46.836;16.820;2023-01-16T09:39:43;11.88;;;1.52;;
64467;SDS011;50853;46.836;16.820;2023-01-16T09:45:19;11.48;;;1.60;;
64467;SDS011;50853;46.836;16.820;2023-01-16T09:48:33;7.53;;;1.60;;
64467;SDS011;50853;46.836;16.820;2023-01-16T09:50:44;8.02;;;1.75;;
64467;SDS011;50853;46.836;16.820;2023-01-16T09:53:17;11.00;;;1.88;;
64467;SDS011;50853;46.836;16.820;2023-01-16T09:56:07;8.57;;;1.90;;
64467;SDS011;50853;46.836;16.820;2023-01-16T09:59:11;9.93;;;1.90;;
64467;SDS011;50853;46.836;16.820;2023-01-16T10:01:47;8.07;;;1.90;;
64467;SDS011;50853;46.836;16.820;2023-01-16T10:04:31;7.20;;;1.70;;
64467;SDS011;50853;46.836;16.820;2023-01-16T10:13:11;10.38;;;2.28;;
64467;SDS011;50853;46.836;16.820;2023-01-16T10:15:49;10.00;;;2.35;;
64467;SDS011;50853;46.836;16.820;2023-01-16T10:18:49;12.80;;;1.55;;
64467;SDS011;50853;46.836;16.820;2023-01-16T10:21:24;6.50;;;1.90;;
64467;SDS011;50853;46.836;16.820;2023-01-16T10:35:23;12.63;;;2.22;;
64467;SDS011;50853;46.836;16.820;2023-01-16T10:37:54;13.65;;;2.17;;
64467;SDS011;50853;46.836;16.820;2023-01-16T10:40:27;13.40;;;2.55;;
64467;SDS011;50853;46.836;16.820;2023-01-16T10:42:58;10.98;;;2.10;;
64467;SDS011;50853;46.836;16.820;2023-01-16T10:45:46;8.63;;;2.20;;
64467;SDS011;50853;46.836;16.820;2023-01-16T10:48:32;9.20;;;2.58;;
64467;SDS011;50853;46.836;16.820;2023-01-16T10:51:16;9.95;;;2.55;;
64467;SDS011;50853;46.836;16.820;2023-01-16T10:53:42;9.38;;;2.50;;
64467;SDS011;50853;46.836;16.820;2023-01-16T10:58:35;9.93;;;2.40;;
64467;SDS011;50853;46.836;16.820;2023-01-16T11:01:08;12.23;;;2.10;;
64467;SDS011;50853;46.836;16.820;2023-01-16T11:03:46;5.35;;;1.95;;
64467;SDS011;50853;46.836;16.820;2023-01-16T11:06:22;13.25;;;2.00;;
64467;SDS011;50853;46.836;16.820;2023-01-16T11:08:52;9.15;;;2.55;;
64467;SDS011;50853;46.836;16.820;2023-01-16T11:14:30;8.35;;;1.85;;
64467;SDS011;50853;46.836;16.820;2023-01-16T11:17:29;7.30;;;1.85;;
64467;SDS011;50853;46.836;16.820;2023-01-16T11:20:19;9.38;;;2.38;;
64467;SDS011;50853;46.836;16.820;2023-01-16T11:22:57;12.48;;;2.20;;
64467;SDS011;50853;46.836;16.820;2023-01-16T11:25:28;6.32;;;1.80;;
64467;SDS011;50853;46.836;16.820;2023-01-16T11:28:06;9.77;;;1.80;;
64467;SDS011;50853;46.836;16.820;2023-01-16T11:30:42;6.15;;;1.90;;
64467;SDS011;50853;46.836;16.820;2023-01-16T11:33:53;5.88;;;1.50;;
64467;SDS011;50853;46.836;16.820;2023-01-16T11:36:03;4.45;;;1.85;;
64467;SDS011;50853;46.836;16.820;2023-01-16T11:38:44;8.73;;;1.67;;
64467;SDS011;50853;46.836;16.820;2023-01-16T11:41:11;4.57;;;1.63;;
64467;SDS011;50853;46.836;16.820;2023-01-16T11:43:41;4.22;;;1.60;;
64467;SDS011;50853;46.836;16.820;2023-01-16T11:48:59;7.13;;;1.67;;
64467;SDS011;50853;46.836;16.820;2023-01-16T11:51:29;4.68;;;1.42;;
64467;SDS011;50853;46.836;16.820;2023-01-16T11:53:56;6.70;;;2.00;;
64467;SDS011;50853;46.836;16.820;2023-01-16T12:04:34;5.93;;;2.05;;
64467;SDS011;50853;46.836;16.820;2023-01-16T12:07:39;9.15;;;2.28;;
64467;SDS011;50853;46.836;16.820;2023-01-16T12:10:18;4.78;;;1.67;;
64467;SDS011;50853;46.836;16.820;2023-01-16T12:13:08;5.10;;;1.58;;
64467;SDS011;50853;46.836;16.820;2023-01-16T12:16:05;5.47;;;1.75;;
64467;SDS011;50853;46.836;16.820;2023-01-16T12:33:15;3.92;;;1.60;;
64467;SDS011;50853;46.836;16.820;2023-01-16T12:39:02;3.20;;;1.73;;
64467;SDS011;50853;46.836;16.820;2023-01-16T12:47:18;6.20;;;2.15;;
64467;SDS011;50853;46.836;16.820;2023-01-16T12:53:11;6.88;;;2.40;;
64467;SDS011;50853;46.836;16.820;2023-01-16T12:55:55;7.53;;;3.38;;
64467;SDS011;50853;46.836;16.820;2023-01-16T12:58:43;9.40;;;3.10;;
64467;SDS011;50853;46.836;16.820;2023-01-16T13:01:14;8.27;;;3.58;;
64467;SDS011;50853;46.836;16.820;2023-01-16T13:09:14;12.98;;;3.30;;
64467;SDS011;50853;46.836;16.820;2023-01-16T13:14:53;11.35;;;2.97;;
64467;SDS011;50853;46.836;16.820;2023-01-16T13:17:27;16.83;;;4.35;;
64467;SDS011;50853;46.836;16.820;2023-01-16T13:20:09;14.00;;;4.00;;
64467;SDS011;50853;46.836;16.820;2023-01-16T13:22:45;14.63;;;3.85;;
64467;SDS011;50853;46.836;16.820;2023-01-16T13:25:24;8.30;;;3.13;;
64467;SDS011;50853;46.836;16.820;2023-01-16T13:28:00;12.98;;;3.63;;
64467;SDS011;50853;46.836;16.820;2023-01-16T13:30:53;17.20;;;3.03;;
64467;SDS011;50853;46.836;16.820;2023-01-16T13:33:22;15.30;;;3.88;;
64467;SDS011;50853;46.836;16.820;2023-01-16T13:41:55;9.23;;;2.47;;
64467;SDS011;50853;46.836;16.820;2023-01-16T13:44:33;9.32;;;3.10;;
64467;SDS011;50853;46.836;16.820;2023-01-16T13:47:23;12.32;;;3.00;;
64467;SDS011;50853;46.836;16.820;2023-01-16T13:49:55;14.45;;;3.20;;
64467;SDS011;50853;46.836;16.820;2023-01-16T13:52:49;11.52;;;2.97;;
64467;SDS011;50853;46.836;16.820;2023-01-16T13:55:26;9.35;;;2.42;;
64467;SDS011;50853;46.836;16.820;2023-01-16T13:58:18;6.38;;;2.47;;
64467;SDS011;50853;46.836;16.820;2023-01-16T14:01:00;7.00;;;2.25;;
64467;SDS011;50853;46.836;16.820;2023-01-16T14:03:29;6.25;;;2.63;;
64467;SDS011;50853;46.836;16.820;2023-01-16T14:08:47;4.30;;;2.13;;
64467;SDS011;50853;46.836;16.820;2023-01-16T14:11:56;4.95;;;1.92;;
64467;SDS011;50853;46.836;16.820;2023-01-16T14:17:26;11.57;;;2.35;;
64467;SDS011;50853;46.836;16.820;2023-01-16T14:20:33;7.75;;;2.38;;
64467;SDS011;50853;46.836;16.820;2023-01-16T14:23:02;5.03;;;1.70;;
64467;SDS011;50853;46.836;16.820;2023-01-16T14:25:53;3.80;;;2.00;;
64467;SDS011;50853;46.836;16.820;2023-01-16T14:28:20;4.07;;;2.28;;
64467;SDS011;50853;46.836;16.820;2023-01-16T14:30:46;7.93;;;2.50;;
64467;SDS011;50853;46.836;16.820;2023-01-16T14:33:16;3.70;;;2.00;;
64467;SDS011;50853;46.836;16.820;2023-01-16T14:35:53;4.55;;;2.33;;
